createdAt,value
2023-02-17T00:02:05.642Z,88.03
2023-02-17T00:04:35.879Z,88.24
2023-02-17T00:07:05.917Z,88.32
2023-02-17T00:09:35.553Z,87.21
2023-02-17T00:12:05.418Z,87.82
2023-02-17T00:14:35.648Z,88.24
2023-02-17T00:17:05.509Z,89.07
2023-02-17T00:19:35.414Z,88.11
2023-02-17T00:22:05.475Z,88.03
2023-02-17T00:24:35.599Z,87.71
2023-02-17T00:27:06.177Z,89.30
2023-02-17T00:29:36.421Z,88.52
2023-02-17T00:32:06.578Z,88.43
2023-02-17T00:34:36.764Z,88.84
2023-02-17T00:37:06.815Z,88.71
2023-02-17T00:39:36.963Z,88.95
2023-02-17T00:42:07.543Z,89.10
2023-02-17T00:44:37.456Z,89.32
2023-02-17T00:47:07.557Z,89.63
2023-02-17T00:49:37.129Z,87.92
2023-02-17T00:52:07.472Z,88.14
2023-02-17T00:54:37.605Z,88.48
2023-02-17T00:57:07.292Z,87.49
2023-02-17T00:59:37.067Z,88.69
2023-02-17T01:02:10.784Z,88.66
2023-02-17T01:04:40.929Z,88.71
2023-02-17T01:07:11.076Z,88.26
2023-02-17T01:09:42.341Z,89.06
2023-02-17T01:12:13.604Z,87.78
2023-02-17T01:14:43.681Z,89.62
2023-02-17T01:17:13.702Z,89.66
2023-02-17T01:19:43.828Z,89.27
2023-02-17T01:22:13.831Z,89.38
2023-02-17T01:24:43.774Z,89.13
2023-02-17T01:27:13.673Z,89.54
2023-02-17T01:29:45.880Z,89.47
2023-02-17T01:32:16.058Z,89.99
2023-02-17T01:34:46.205Z,89.16
2023-02-17T01:37:16.484Z,89.79
2023-02-17T01:39:46.494Z,89.70
2023-02-17T01:42:21.284Z,89.30
2023-02-17T01:45:18.971Z,89.98
2023-02-17T01:48:26.850Z,90.13
2023-02-17T01:51:04.620Z,90.29
2023-02-17T01:53:50.238Z,90.35
2023-02-17T01:56:20.655Z,90.75
2023-02-17T01:58:57.073Z,90.97
2023-02-17T02:01:28.146Z,91.06
2023-02-17T02:04:00.079Z,91.00
2023-02-17T02:06:31.351Z,90.76
2023-02-17T02:09:14.646Z,90.95
2023-02-17T02:11:44.863Z,91.84
2023-02-17T02:14:15.246Z,91.58
2023-02-17T02:16:52.371Z,91.86
2023-02-17T02:19:43.999Z,91.79
2023-02-17T02:22:16.570Z,92.48
2023-02-17T02:25:00.284Z,91.96
2023-02-17T02:28:23.291Z,91.85
2023-02-17T02:31:05.053Z,91.88
2023-02-17T02:33:47.673Z,92.21
2023-02-17T02:36:27.418Z,92.13
2023-02-17T02:39:11.603Z,92.55
2023-02-17T02:41:46.779Z,92.68
2023-02-17T02:44:20.768Z,92.44
2023-02-17T02:47:09.087Z,92.22
2023-02-17T02:49:41.343Z,92.29
2023-02-17T02:52:17.162Z,92.33
2023-02-17T02:55:06.250Z,92.37
2023-02-17T02:58:00.623Z,92.57
2023-02-17T03:00:55.236Z,92.57
2023-02-17T03:03:59.374Z,92.40
2023-02-17T03:06:39.435Z,92.76
2023-02-17T03:09:14.399Z,92.82
2023-02-17T03:11:44.751Z,92.95
2023-02-17T03:14:18.738Z,93.01
2023-02-17T03:16:49.766Z,93.04
2023-02-17T03:19:23.658Z,93.16
2023-02-17T03:22:30.441Z,92.80
2023-02-17T03:25:02.413Z,93.20
2023-02-17T03:27:32.593Z,93.56
2023-02-17T03:30:02.762Z,93.45
2023-02-17T03:32:32.346Z,92.60
2023-02-17T03:35:02.207Z,92.58
2023-02-17T03:37:32.558Z,92.47
2023-02-17T03:40:02.099Z,92.09
2023-02-17T03:42:32.137Z,93.28
2023-02-17T03:45:01.792Z,92.10
2023-02-17T03:47:31.601Z,92.87
2023-02-17T03:50:01.505Z,93.12
2023-02-17T03:52:31.047Z,92.35
2023-02-17T03:55:01.209Z,92.83
2023-02-17T03:57:33.021Z,92.96
2023-02-17T04:00:03.129Z,92.96
2023-02-17T04:02:44.174Z,92.77
2023-02-17T04:05:14.413Z,93.17
2023-02-17T04:07:44.000Z,91.24
2023-02-17T04:10:14.048Z,91.90
2023-02-17T04:12:43.845Z,90.95
2023-02-17T04:15:13.807Z,90.29
2023-02-17T04:17:43.637Z,90.30
2023-02-17T04:20:13.992Z,89.52
2023-02-17T04:22:44.188Z,88.43
2023-02-17T04:25:14.494Z,87.59
2023-02-17T04:27:44.551Z,87.78
2023-02-17T04:30:14.977Z,87.91
2023-02-17T04:32:45.312Z,87.52
2023-02-17T04:35:15.583Z,87.24
2023-02-17T04:37:45.646Z,88.11
2023-02-17T04:40:15.857Z,88.88
2023-02-17T04:42:46.426Z,88.49
2023-02-17T04:45:16.666Z,88.01
2023-02-17T04:47:46.756Z,88.11
2023-02-17T04:50:16.708Z,88.17
2023-02-17T04:52:46.425Z,88.16
2023-02-17T04:55:16.786Z,88.82
2023-02-17T04:57:47.200Z,88.31
2023-02-17T05:00:17.747Z,88.10
2023-02-17T05:02:48.124Z,88.41
2023-02-17T05:05:20.189Z,88.40
2023-02-17T05:07:50.908Z,88.55
2023-02-17T05:10:24.099Z,88.71
2023-02-17T05:12:54.615Z,89.44
2023-02-17T05:15:25.041Z,89.09
2023-02-17T05:17:55.399Z,88.76
2023-02-17T05:20:25.874Z,88.71
2023-02-17T05:22:56.333Z,88.89
2023-02-17T05:25:26.727Z,89.64
2023-02-17T05:27:57.205Z,89.68
2023-02-17T05:30:27.813Z,90.06
2023-02-17T05:32:58.229Z,90.34
2023-02-17T05:35:28.890Z,89.35
2023-02-17T05:37:59.242Z,89.23
2023-02-17T05:40:29.574Z,88.89
2023-02-17T05:42:59.929Z,89.36
2023-02-17T05:45:30.374Z,88.72
2023-02-17T05:47:59.970Z,89.13
2023-02-17T05:50:30.297Z,89.39
2023-02-17T05:53:05.802Z,89.66
2023-02-17T05:55:36.193Z,88.97
2023-02-17T05:58:06.855Z,89.14
2023-02-17T06:00:37.316Z,89.12
2023-02-17T06:03:07.930Z,89.98
2023-02-17T06:05:38.621Z,89.79
2023-02-17T06:08:09.807Z,90.21
2023-02-17T06:10:40.170Z,90.43
2023-02-17T06:13:10.908Z,90.03
2023-02-17T06:15:41.316Z,89.80
2023-02-17T06:18:11.969Z,91.14
2023-02-17T06:20:42.669Z,90.66
2023-02-17T06:23:13.034Z,91.17
2023-02-17T06:25:43.684Z,90.25
2023-02-17T06:28:14.170Z,90.37
2023-02-17T06:30:44.825Z,89.95
2023-02-17T06:33:15.238Z,90.75
2023-02-17T06:35:51.083Z,90.72
2023-02-17T06:38:21.628Z,90.90
2023-02-17T06:40:51.991Z,90.39
2023-02-17T06:43:22.686Z,90.56
2023-02-17T06:45:53.245Z,90.52
2023-02-17T06:48:23.708Z,90.70
2023-02-17T06:50:53.566Z,90.34
2023-02-17T06:53:23.602Z,90.06
2023-02-17T06:55:53.982Z,91.06
2023-02-17T06:58:24.654Z,90.24
2023-02-17T07:00:55.027Z,90.57
2023-02-17T07:03:25.555Z,90.78
2023-02-17T07:06:02.407Z,90.74
2023-02-17T07:08:34.119Z,90.85
2023-02-17T07:11:12.599Z,90.79
2023-02-17T07:13:43.292Z,91.25
2023-02-17T07:16:15.752Z,91.23
2023-02-17T07:18:46.343Z,91.61
2023-02-17T07:21:16.890Z,91.96
2023-02-17T07:23:47.309Z,91.95
2023-02-17T07:26:17.805Z,91.82
2023-02-17T07:28:48.275Z,92.26
2023-02-17T07:31:19.638Z,92.17
2023-02-17T07:33:51.587Z,91.68
2023-02-17T07:36:22.042Z,91.71
2023-02-17T07:38:52.534Z,92.11
2023-02-17T07:41:25.991Z,92.41
2023-02-17T07:43:59.085Z,92.12
2023-02-17T07:46:29.994Z,92.50
2023-02-17T07:49:00.906Z,91.54
2023-02-17T07:51:31.302Z,91.67
2023-02-17T07:54:03.998Z,91.79
2023-02-17T07:56:35.300Z,91.96
2023-02-17T07:59:05.917Z,91.86
2023-02-17T08:01:36.462Z,91.63
2023-02-17T08:04:07.382Z,91.29
2023-02-17T08:06:41.494Z,91.62
2023-02-17T08:09:31.729Z,92.27
2023-02-17T08:12:21.050Z,92.17
2023-02-17T08:14:51.409Z,93.28
2023-02-17T08:17:21.848Z,93.30
2023-02-17T08:19:52.280Z,94.50
2023-02-17T08:22:22.794Z,94.83
2023-02-17T08:24:53.324Z,95.52
2023-02-17T08:27:23.910Z,95.78
2023-02-17T08:29:55.820Z,95.94
2023-02-17T08:32:26.632Z,95.68
2023-02-17T08:34:59.842Z,96.79
2023-02-17T08:37:31.555Z,97.35
2023-02-17T08:40:02.276Z,97.59
2023-02-17T08:42:34.498Z,97.54
2023-02-17T08:45:06.775Z,98.47
2023-02-17T08:47:38.131Z,98.64
2023-02-17T08:50:10.725Z,98.48
2023-02-17T08:52:41.163Z,99.29
2023-02-17T08:55:12.385Z,98.21
2023-02-17T08:57:43.013Z,99.13
2023-02-17T09:00:13.983Z,99.64
2023-02-17T09:02:47.671Z,99.32
2023-02-17T09:05:18.143Z,99.99
2023-02-17T09:07:48.551Z,99.99
2023-02-17T09:10:19.061Z,99.99
2023-02-17T09:12:49.565Z,99.99
2023-02-17T09:15:19.260Z,99.99
2023-02-17T09:17:49.595Z,99.99
2023-02-17T09:20:25.073Z,99.99
2023-02-17T09:22:55.861Z,99.99
2023-02-17T09:25:25.588Z,99.99
2023-02-17T09:27:55.341Z,99.99
2023-02-17T09:30:25.786Z,99.99
2023-02-17T09:32:55.932Z,99.99
2023-02-17T09:35:26.614Z,99.99
2023-02-17T09:37:56.784Z,99.99
2023-02-17T09:40:41.233Z,99.99
2023-02-17T09:43:25.113Z,99.99
2023-02-17T09:46:02.133Z,99.99
2023-02-17T09:48:34.074Z,99.99
2023-02-17T09:51:31.995Z,99.99
2023-02-17T09:54:25.474Z,99.99
2023-02-17T09:56:58.303Z,99.99
2023-02-17T09:59:46.441Z,99.99
2023-02-17T10:02:27.724Z,99.99
2023-02-17T10:05:02.265Z,99.99
2023-02-17T10:07:38.588Z,99.99
2023-02-17T10:10:17.926Z,99.99
2023-02-17T10:12:53.028Z,99.99
2023-02-17T10:15:27.923Z,99.99
2023-02-17T10:18:18.731Z,99.99
2023-02-17T10:20:55.043Z,99.99
2023-02-17T10:23:28.043Z,99.99
2023-02-17T10:26:01.060Z,99.99
2023-02-17T10:29:01.156Z,99.99
2023-02-17T10:31:47.884Z,99.99
2023-02-17T10:34:44.394Z,99.99
2023-02-17T10:37:23.121Z,99.99
2023-02-17T10:39:56.477Z,99.99
2023-02-17T10:42:37.881Z,99.99
2023-02-17T10:45:23.183Z,99.99
2023-02-17T10:48:17.848Z,99.54
2023-02-17T10:50:49.414Z,99.99
2023-02-17T10:53:24.002Z,99.80
2023-02-17T10:56:03.727Z,99.99
2023-02-17T10:58:56.888Z,99.98
2023-02-17T11:01:29.276Z,99.99
2023-02-17T11:04:13.385Z,99.99
2023-02-17T11:06:58.975Z,99.55
2023-02-17T11:09:33.900Z,99.99
2023-02-17T11:12:16.030Z,99.95
2023-02-17T11:14:48.802Z,99.90
2023-02-17T11:17:32.021Z,99.55
2023-02-17T11:20:07.349Z,99.99
2023-02-17T11:22:43.060Z,99.54
2023-02-17T11:25:34.190Z,99.63
2023-02-17T11:28:07.621Z,99.39
2023-02-17T11:30:37.848Z,99.29
2023-02-17T11:33:17.496Z,99.48
2023-02-17T11:35:56.131Z,99.99
2023-02-17T11:38:44.692Z,99.43
2023-02-17T11:41:15.623Z,99.67
2023-02-17T11:44:02.687Z,99.99
2023-02-17T11:46:40.259Z,99.99
2023-02-17T11:49:48.772Z,99.99
2023-02-17T11:52:37.525Z,99.63
2023-02-17T11:55:19.790Z,99.52
2023-02-17T11:58:26.382Z,99.13
2023-02-17T12:01:32.144Z,99.66
2023-02-17T12:04:22.570Z,99.61
2023-02-17T12:07:21.258Z,98.26
2023-02-17T12:10:37.357Z,98.57
2023-02-17T12:13:17.750Z,99.33
2023-02-17T12:16:11.620Z,98.00
2023-02-17T12:18:53.711Z,98.77
2023-02-17T12:21:26.522Z,99.28
2023-02-17T12:24:20.303Z,99.79
2023-02-17T12:27:00.742Z,98.39
2023-02-17T12:29:42.582Z,99.17
2023-02-17T12:32:27.496Z,98.04
2023-02-17T12:35:23.325Z,98.21
2023-02-17T12:38:02.410Z,98.27
2023-02-17T12:40:38.500Z,97.30
2023-02-17T12:43:32.076Z,96.98
2023-02-17T12:46:07.319Z,97.78
2023-02-17T12:49:07.496Z,94.81
2023-02-17T12:51:46.057Z,95.67
2023-02-17T12:54:24.842Z,95.16
2023-02-17T12:57:02.589Z,95.94
2023-02-17T12:59:32.733Z,94.22
2023-02-17T13:02:06.850Z,95.69
2023-02-17T13:04:38.148Z,94.29
2023-02-17T13:07:21.323Z,94.50
2023-02-17T13:09:52.918Z,95.83
2023-02-17T13:12:25.877Z,95.46
2023-02-17T13:15:03.426Z,94.20
2023-02-17T13:17:40.842Z,94.88
2023-02-17T13:20:13.774Z,92.96
2023-02-17T13:22:46.074Z,92.59
2023-02-17T13:25:33.256Z,93.46
2023-02-17T13:28:17.185Z,94.32
2023-02-17T13:30:49.451Z,93.81
2023-02-17T13:33:22.535Z,93.50
2023-02-17T13:35:52.804Z,93.20
2023-02-17T13:38:33.343Z,92.98
2023-02-17T13:41:07.606Z,93.40
2023-02-17T13:43:44.881Z,93.10
2023-02-17T13:46:25.504Z,92.79
2023-02-17T13:49:05.597Z,92.36
2023-02-17T13:51:36.625Z,89.98
2023-02-17T13:54:09.773Z,92.88
2023-02-17T13:56:40.919Z,91.04
2023-02-17T13:59:19.146Z,91.26
2023-02-17T14:01:49.580Z,90.88
2023-02-17T14:04:39.882Z,90.62
2023-02-17T14:07:13.433Z,90.57
2023-02-17T14:17:05.718Z,87.81
2023-02-17T14:19:49.953Z,88.59
2023-02-17T14:22:31.507Z,86.65
2023-02-17T14:25:01.615Z,88.13
2023-02-17T14:27:41.946Z,85.83
2023-02-17T14:30:38.912Z,87.86
2023-02-17T14:33:18.307Z,84.20
2023-02-17T14:36:08.575Z,84.74
2023-02-17T14:38:42.789Z,83.98
2023-02-17T14:41:12.908Z,82.47
2023-02-17T14:43:42.546Z,85.06
2023-02-17T14:46:12.391Z,84.80
2023-02-17T14:48:42.102Z,82.86
2023-02-17T14:51:20.833Z,84.93
2023-02-17T14:53:52.367Z,82.65
2023-02-17T14:56:31.396Z,83.57
2023-02-17T14:59:01.640Z,84.19
2023-02-17T15:01:32.215Z,84.23
2023-02-17T15:04:04.011Z,83.48
2023-02-17T15:06:44.823Z,82.46
2023-02-17T15:09:18.280Z,83.88
2023-02-17T15:11:50.390Z,84.63
2023-02-17T15:14:22.213Z,85.09
2023-02-17T15:16:53.484Z,85.05
2023-02-17T15:19:23.600Z,85.06
2023-02-17T15:21:53.442Z,83.83
2023-02-17T15:24:30.525Z,83.55
2023-02-17T15:27:04.476Z,83.02
2023-02-17T15:29:34.870Z,80.79
2023-02-17T15:32:12.382Z,82.53
2023-02-17T15:34:42.484Z,82.35
2023-02-17T15:37:13.031Z,82.41
2023-02-17T15:39:43.141Z,83.57
2023-02-17T15:42:16.016Z,83.13
2023-02-17T15:44:51.710Z,83.64
2023-02-17T15:47:23.031Z,83.01
2023-02-17T15:49:53.246Z,83.43
2023-02-17T15:52:23.394Z,82.83
2023-02-17T15:54:52.985Z,82.40
2023-02-17T15:57:26.026Z,81.23
2023-02-17T15:59:56.873Z,82.27
2023-02-17T16:02:27.480Z,83.41
2023-02-17T16:04:57.490Z,81.33
2023-02-17T16:07:27.574Z,81.25
2023-02-17T16:09:57.224Z,81.83
2023-02-17T16:12:34.528Z,80.57
2023-02-17T16:15:06.105Z,82.73
2023-02-17T16:17:37.128Z,82.65
2023-02-17T16:20:14.625Z,81.09
2023-02-17T16:22:46.357Z,82.20
2023-02-17T16:25:17.987Z,82.76
2023-02-17T16:27:50.782Z,82.73
2023-02-17T16:30:30.915Z,82.65
2023-02-17T16:33:01.604Z,83.46
2023-02-17T16:35:33.623Z,83.57
2023-02-17T16:38:23.704Z,81.67
2023-02-17T16:40:54.931Z,81.02
2023-02-17T16:43:29.029Z,81.71
2023-02-17T16:46:02.740Z,81.95
2023-02-17T16:48:35.488Z,82.35
2023-02-17T16:51:05.715Z,82.10
2023-02-17T16:53:35.822Z,82.83
2023-02-17T16:56:15.530Z,81.48
2023-02-17T16:58:46.040Z,81.20
2023-02-17T17:01:16.739Z,80.19
2023-02-17T17:03:47.066Z,80.51
2023-02-17T17:06:24.961Z,78.69
2023-02-17T17:08:56.015Z,79.40
2023-02-17T17:11:27.560Z,80.15
2023-02-17T17:13:57.808Z,79.41
2023-02-17T17:16:34.565Z,80.51
2023-02-17T17:19:05.351Z,82.46
2023-02-17T17:21:35.830Z,81.65
2023-02-17T17:24:06.327Z,82.31
2023-02-17T17:26:42.484Z,80.41
2023-02-17T17:29:18.012Z,81.94
2023-02-17T17:31:48.491Z,81.03
2023-02-17T17:34:18.638Z,80.70
2023-02-17T17:36:49.849Z,80.68
2023-02-17T17:39:23.429Z,79.18
2023-02-17T17:41:53.750Z,80.69
2023-02-17T17:44:23.946Z,78.93
2023-02-17T17:46:54.193Z,77.60
2023-02-17T17:49:24.500Z,78.08
2023-02-17T17:51:54.629Z,78.64
2023-02-17T17:54:24.456Z,78.55
2023-02-17T17:56:56.079Z,78.45
2023-02-17T17:59:27.270Z,77.54
2023-02-17T18:01:57.409Z,77.39
2023-02-17T18:04:27.050Z,79.65
2023-02-17T18:06:59.247Z,79.85
2023-02-17T18:09:32.722Z,81.00
2023-02-17T18:12:07.306Z,80.43
2023-02-17T18:14:39.272Z,79.89
2023-02-17T18:17:11.828Z,79.36
2023-02-17T18:19:42.937Z,77.40
2023-02-17T18:22:13.330Z,77.54
2023-02-17T18:24:43.411Z,78.18
2023-02-17T18:27:13.582Z,78.88
2023-02-17T18:29:44.758Z,78.33
2023-02-17T18:32:15.539Z,78.27
2023-02-17T18:34:45.720Z,78.22
2023-02-17T18:37:16.131Z,77.35
2023-02-17T18:39:46.448Z,78.28
2023-02-17T18:42:16.699Z,78.30
2023-02-17T18:44:46.850Z,78.27
2023-02-17T18:47:16.785Z,78.44
2023-02-17T18:49:46.755Z,78.85
2023-02-17T18:52:16.817Z,79.55
2023-02-17T18:54:47.389Z,80.53
2023-02-17T18:57:18.080Z,79.81
2023-02-17T18:59:48.327Z,79.20
2023-02-17T19:02:18.737Z,79.43
2023-02-17T19:04:49.143Z,80.59
2023-02-17T19:07:19.349Z,79.66
2023-02-17T19:09:52.808Z,80.07
2023-02-17T19:12:23.056Z,80.14
2023-02-17T19:14:56.824Z,81.30
2023-02-17T19:17:27.567Z,79.17
2023-02-17T19:19:57.807Z,79.44
2023-02-17T19:22:27.969Z,80.09
2023-02-17T19:25:04.765Z,79.73
2023-02-17T19:27:35.644Z,79.21
2023-02-17T19:30:05.977Z,79.79
2023-02-17T19:32:36.110Z,79.24
2023-02-17T19:35:06.922Z,77.94
2023-02-17T19:37:37.237Z,76.76
2023-02-17T19:40:07.951Z,78.51
2023-02-17T19:42:38.781Z,78.39
2023-02-17T19:45:09.017Z,77.61
2023-02-17T19:47:39.189Z,77.14
2023-02-17T19:50:09.094Z,78.90
2023-02-17T19:52:39.636Z,78.68
2023-02-17T19:55:11.232Z,77.83
2023-02-17T19:57:41.433Z,78.24
2023-02-17T20:00:11.518Z,78.34
2023-02-17T20:02:41.690Z,77.77
2023-02-17T20:05:11.877Z,77.68
2023-02-17T20:07:42.191Z,78.44
2023-02-17T20:10:13.984Z,78.62
2023-02-17T20:12:44.257Z,79.75
2023-02-17T20:15:14.457Z,79.17
2023-02-17T20:17:44.660Z,79.37
2023-02-17T20:20:14.323Z,79.05
2023-02-17T20:22:44.067Z,80.12
2023-02-17T20:25:14.340Z,80.03
2023-02-17T20:27:43.928Z,78.01
2023-02-17T20:30:14.827Z,78.00
2023-02-17T20:32:45.031Z,75.99
2023-02-17T20:35:16.041Z,76.30
2023-02-17T20:37:46.538Z,72.96
2023-02-17T20:40:17.041Z,72.05
2023-02-17T20:42:47.199Z,69.52
2023-02-17T20:45:16.882Z,70.79
2023-02-17T20:47:46.900Z,67.50
2023-02-17T20:50:20.538Z,70.67
2023-02-17T20:52:51.362Z,72.17
2023-02-17T20:55:21.936Z,70.97
2023-02-17T20:57:52.044Z,67.14
2023-02-17T21:00:25.435Z,63.58
2023-02-17T21:02:56.028Z,64.85
2023-02-17T21:05:27.781Z,68.35
2023-02-17T21:07:58.972Z,71.12
2023-02-17T21:10:31.531Z,71.11
2023-02-17T21:13:01.610Z,71.53
2023-02-17T21:15:31.758Z,72.50
2023-02-17T21:18:02.018Z,72.20
2023-02-17T21:20:31.620Z,73.41
2023-02-17T21:23:02.186Z,71.03
2023-02-17T21:25:32.746Z,73.79
2023-02-17T21:28:02.954Z,73.93
2023-02-17T21:30:33.297Z,73.56
2023-02-17T21:33:02.913Z,75.61
2023-02-17T21:35:32.978Z,75.59
2023-02-17T21:38:03.940Z,76.07
2023-02-17T21:40:33.985Z,75.17
2023-02-17T21:43:22.356Z,77.12
2023-02-17T21:45:53.188Z,76.56
2023-02-17T21:48:22.923Z,77.00
2023-02-17T21:50:52.944Z,77.47
2023-02-17T21:53:23.164Z,77.04
2023-02-17T21:55:52.775Z,77.89
2023-02-17T21:58:22.590Z,77.48
2023-02-17T22:00:52.274Z,78.32
2023-02-17T22:03:22.129Z,79.10
2023-02-17T22:05:51.733Z,78.72
2023-02-17T22:08:22.338Z,79.22
2023-02-17T22:10:52.480Z,80.33
2023-02-17T22:13:22.147Z,79.80
2023-02-17T22:15:59.548Z,78.64
2023-02-17T22:18:30.249Z,79.11
2023-02-17T22:21:00.420Z,79.01
2023-02-17T22:23:30.581Z,79.69
2023-02-17T22:26:00.670Z,78.04
2023-02-17T22:28:30.649Z,77.12
2023-02-17T22:31:00.846Z,78.60
2023-02-17T22:33:30.851Z,77.20
2023-02-17T22:36:07.803Z,77.10
2023-02-17T22:38:38.535Z,76.98
2023-02-17T22:41:08.888Z,76.64
2023-02-17T22:43:40.829Z,77.23
2023-02-17T22:46:12.312Z,77.21
2023-02-17T22:48:42.466Z,76.20
2023-02-17T22:51:15.948Z,76.65
2023-02-17T22:53:46.493Z,77.77
2023-02-17T22:56:17.235Z,76.95
2023-02-17T22:58:47.537Z,75.30
2023-02-17T23:01:18.497Z,76.64
2023-02-17T23:03:53.706Z,76.46
2023-02-17T23:06:33.122Z,74.69
2023-02-17T23:09:04.041Z,75.54
2023-02-17T23:11:52.057Z,74.21
2023-02-17T23:14:34.759Z,75.08
2023-02-17T23:17:06.217Z,75.59
2023-02-17T23:19:36.927Z,72.55
2023-02-17T23:22:11.318Z,75.22
2023-02-17T23:24:41.485Z,73.95
2023-02-17T23:27:12.258Z,74.49
2023-02-17T23:29:43.520Z,73.56
2023-02-17T23:32:13.662Z,75.40
2023-02-17T23:34:43.588Z,73.70
2023-02-17T23:37:13.644Z,73.62
2023-02-17T23:39:43.516Z,73.46
2023-02-17T23:42:13.640Z,73.59
2023-02-17T23:44:43.724Z,72.36
2023-02-17T23:47:13.327Z,73.54
2023-02-17T23:49:43.135Z,72.93
2023-02-17T23:52:13.323Z,72.03
2023-02-17T23:54:43.542Z,73.10
2023-02-17T23:57:13.669Z,71.69
2023-02-17T23:59:43.572Z,71.51
